Time;durP1;ratioP1;P1;durP2;ratioP2;P2;SDS_P1;SDS_P2;PMS_P1;PMS_P2;Temp;Humidity;BMP_temperature;BMP_pressure;BME280_temperature;BME280_humidity;BME280_pressure;Samples;Min_cycle;Max_cycle;Signal;HPM_P1;HPM_P2
2022/07/10 00:00:28;;;;;;;5.50;4.47;;;;;;;;;;5091108;28;20633;-78
2022/07/10 00:03:32;;;;;;;5.70;5.10;;;;;;;;;;5090035;28;20194;-78
2022/07/10 00:06:40;;;;;;;8.50;6.90;;;;;;;;;;5077348;28;20194;-77
2022/07/10 00:09:45;;;;;;;9.27;7.37;;;;;;;;;;5101298;28;20179;-77
2022/07/10 00:12:50;;;;;;;10.47;8.30;;;;;;;;;;5081468;28;20175;-77
2022/07/10 00:15:54;;;;;;;8.20;5.23;;;;;;;;;;5104559;28;20175;-77
2022/07/10 00:18:59;;;;;;;9.20;6.63;;;;;;;;;;5081239;28;20175;-78
2022/07/10 00:22:04;;;;;;;9.90;9.00;;;;;;;;;;5102868;28;20202;-77
2022/07/10 00:25:12;;;;;;;9.50;7.80;;;;;;;;;;5078928;28;20175;-78
2022/07/10 00:28:16;;;;;;;8.43;7.33;;;;;;;;;;5078295;28;20179;-78
2022/07/10 00:31:21;;;;;;;7.07;6.00;;;;;;;;;;5078454;28;20226;-77
2022/07/10 00:34:25;;;;;;;7.20;5.70;;;;;;;;;;5091150;28;20183;-77
2022/07/10 00:37:30;;;;;;;6.67;6.07;;;;;;;;;;5079264;28;20179;-77
2022/07/10 00:40:34;;;;;;;6.47;5.07;;;;;;;;;;5078394;28;20700;-77
2022/07/10 00:43:52;;;;;;;5.63;4.43;;;;;;;;;;5100382;28;20183;-77
2022/07/10 00:46:56;;;;;;;5.60;5.10;;;;;;;;;;5075058;28;20183;-77
2022/07/10 00:50:00;;;;;;;6.53;5.17;;;;;;;;;;5076032;28;20175;-77
2022/07/10 00:53:05;;;;;;;6.03;5.13;;;;;;;;;;5079394;22;20231;-79
2022/07/10 00:56:10;;;;;;;8.67;5.80;;;;;;;;;;5078358;28;20171;-79
2022/07/10 00:59:15;;;;;;;6.13;5.63;;;;;;;;;;5077084;28;20179;-79
2022/07/10 01:02:20;;;;;;;10.00;5.60;;;;;;;;;;5076614;28;20555;-79
2022/07/10 01:05:24;;;;;;;7.20;5.73;;;;;;;;;;5076967;28;20180;-79
2022/07/10 01:08:28;;;;;;;6.20;5.57;;;;;;;;;;5065584;28;20176;-79
2022/07/10 01:11:34;;;;;;;6.90;5.37;;;;;;;;;;5065192;28;20219;-79
2022/07/10 01:14:39;;;;;;;6.27;5.67;;;;;;;;;;5054583;28;20180;-79
2022/07/10 01:17:43;;;;;;;8.97;5.90;;;;;;;;;;5053839;28;20184;-79
2022/07/10 01:20:57;;;;;;;7.07;6.00;;;;;;;;;;5054180;28;20207;-80
2022/07/10 01:24:10;;;;;;;6.47;5.77;;;;;;;;;;5065678;28;20191;-79
2022/07/10 01:27:14;;;;;;;10.83;5.90;;;;;;;;;;5078023;28;20645;-79
2022/07/10 01:30:19;;;;;;;6.97;5.90;;;;;;;;;;5053551;28;20211;-79
2022/07/10 01:33:23;;;;;;;6.50;5.87;;;;;;;;;;5065683;28;20175;-79
2022/07/10 01:36:30;;;;;;;7.33;5.57;;;;;;;;;;5053917;28;20184;-79
2022/07/10 01:39:34;;;;;;;7.03;5.50;;;;;;;;;;5042315;28;20179;-79
2022/07/10 01:42:39;;;;;;;5.83;5.00;;;;;;;;;;5053900;28;20207;-79
2022/07/10 01:45:44;;;;;;;5.27;4.73;;;;;;;;;;5053664;28;20187;-79
2022/07/10 01:48:48;;;;;;;6.03;5.03;;;;;;;;;;5065256;28;20176;-79
2022/07/10 01:51:52;;;;;;;5.07;4.57;;;;;;;;;;5077344;28;20223;-79
2022/07/10 01:54:56;;;;;;;5.40;4.90;;;;;;;;;;5065026;28;20180;-79
2022/07/10 01:58:00;;;;;;;6.30;5.70;;;;;;;;;;5064496;28;20179;-79
2022/07/10 02:01:07;;;;;;;5.57;5.07;;;;;;;;;;5065244;28;20215;-80
2022/07/10 02:07:34;;;;;;;6.03;5.20;;;;;;;;;;5053029;28;20184;-79
2022/07/10 02:10:38;;;;;;;6.60;5.50;;;;;;;;;;5041759;28;20230;-79
2022/07/10 02:13:42;;;;;;;5.57;4.67;;;;;;;;;;5064698;28;20511;-79
2022/07/10 02:16:46;;;;;;;5.53;4.97;;;;;;;;;;5065171;28;20191;-79
2022/07/10 02:19:50;;;;;;;6.10;5.50;;;;;;;;;;5064800;28;20176;-79
2022/07/10 02:22:55;;;;;;;6.87;5.07;;;;;;;;;;5053612;28;20167;-79
2022/07/10 02:25:59;;;;;;;6.33;5.57;;;;;;;;;;5042008;28;20176;-79
2022/07/10 02:29:04;;;;;;;5.67;5.13;;;;;;;;;;5052882;28;20171;-79
2022/07/10 02:32:08;;;;;;;5.30;4.80;;;;;;;;;;5041341;28;20211;-80
2022/07/10 02:35:12;;;;;;;6.63;5.60;;;;;;;;;;5076053;28;20176;-79
2022/07/10 02:38:17;;;;;;;9.83;6.10;;;;;;;;;;5076413;28;20176;-79
2022/07/10 02:41:21;;;;;;;6.30;5.70;;;;;;;;;;5041302;28;20227;-79
2022/07/10 02:44:25;;;;;;;6.40;5.80;;;;;;;;;;5052969;28;20644;-79
2022/07/10 02:47:29;;;;;;;6.53;5.40;;;;;;;;;;5065426;28;20523;-79
2022/07/10 02:50:34;;;;;;;7.83;5.70;;;;;;;;;;5053021;28;20918;-79
2022/07/10 02:53:39;;;;;;;6.93;5.47;;;;;;;;;;5076646;28;20203;-79
2022/07/10 02:56:43;;;;;;;6.50;5.90;;;;;;;;;;5053563;28;20184;-79
2022/07/10 02:59:47;;;;;;;7.93;6.03;;;;;;;;;;5053165;28;20195;-79
2022/07/10 03:02:52;;;;;;;6.13;5.53;;;;;;;;;;5052892;28;20534;-80
2022/07/10 03:05:56;;;;;;;6.67;6.07;;;;;;;;;;5052958;28;20180;-79
2022/07/10 03:09:00;;;;;;;6.60;6.00;;;;;;;;;;5052638;28;20171;-80
2022/07/10 03:12:05;;;;;;;6.60;6.00;;;;;;;;;;5041435;28;20208;-79
2022/07/10 03:15:10;;;;;;;7.23;6.37;;;;;;;;;;5042454;28;20176;-79
2022/07/10 03:18:14;;;;;;;7.67;6.70;;;;;;;;;;5066746;28;20665;-79
2022/07/10 03:21:18;;;;;;;8.00;6.40;;;;;;;;;;5079636;28;20227;-79
2022/07/10 03:24:22;;;;;;;7.30;6.33;;;;;;;;;;5079539;28;20176;-79
2022/07/10 03:27:26;;;;;;;7.43;6.67;;;;;;;;;;5078794;28;20626;-79
2022/07/10 03:30:31;;;;;;;8.37;6.83;;;;;;;;;;5056067;28;20179;-79
2022/07/10 03:33:35;;;;;;;7.73;6.97;;;;;;;;;;5055599;28;20179;-79
2022/07/10 03:36:39;;;;;;;9.17;7.03;;;;;;;;;;5066281;28;20195;-79
2022/07/10 03:39:43;;;;;;;10.60;6.60;;;;;;;;;;5055038;28;20184;-79
2022/07/10 03:42:47;;;;;;;7.03;6.43;;;;;;;;;;5078632;28;20207;-79
2022/07/10 03:45:51;;;;;;;7.87;6.47;;;;;;;;;;5067428;28;20179;-79
2022/07/10 03:48:56;;;;;;;6.90;6.30;;;;;;;;;;5055305;28;20179;-79
2022/07/10 03:52:01;;;;;;;6.60;6.00;;;;;;;;;;5055734;28;20215;-79
2022/07/10 03:55:06;;;;;;;7.77;6.97;;;;;;;;;;5054969;28;20176;-79
2022/07/10 03:58:10;;;;;;;8.03;6.70;;;;;;;;;;5066545;28;20195;-79
2022/07/10 04:01:14;;;;;;;8.00;7.20;;;;;;;;;;5055477;28;20223;-79
2022/07/10 04:04:19;;;;;;;9.43;7.37;;;;;;;;;;5055178;28;20175;-79
2022/07/10 04:07:23;;;;;;;7.90;7.10;;;;;;;;;;5055034;28;20175;-79
2022/07/10 04:10:29;;;;;;;8.53;7.27;;;;;;;;;;5043313;28;20184;-79
2022/07/10 04:13:33;;;;;;;9.13;7.53;;;;;;;;;;5066442;28;20180;-79
2022/07/10 04:16:37;;;;;;;9.00;7.60;;;;;;;;;;5079355;28;20195;-79
2022/07/10 04:19:41;;;;;;;7.93;7.13;;;;;;;;;;5054817;28;20515;-79
2022/07/10 04:22:46;;;;;;;8.00;6.60;;;;;;;;;;5078837;28;20203;-79
2022/07/10 04:25:50;;;;;;;9.20;7.13;;;;;;;;;;5055802;28;20184;-79
2022/07/10 04:28:54;;;;;;;8.53;6.63;;;;;;;;;;5054958;28;20180;-79
2022/07/10 04:31:58;;;;;;;8.20;7.40;;;;;;;;;;5054990;28;20211;-79
2022/07/10 04:35:03;;;;;;;7.37;6.53;;;;;;;;;;5055066;28;20632;-79
2022/07/10 04:38:07;;;;;;;8.37;7.37;;;;;;;;;;5054307;28;20526;-79
2022/07/10 04:41:11;;;;;;;11.13;7.93;;;;;;;;;;5043244;28;20227;-79
2022/07/10 04:44:16;;;;;;;7.63;6.83;;;;;;;;;;5065932;28;20184;-79
2022/07/10 04:47:20;;;;;;;9.10;8.20;;;;;;;;;;5043609;28;20630;-79
2022/07/10 04:50:24;;;;;;;8.77;7.57;;;;;;;;;;5078181;28;20179;-79
2022/07/10 04:53:28;;;;;;;9.70;7.47;;;;;;;;;;5042903;28;20542;-79
2022/07/10 04:56:32;;;;;;;8.77;7.50;;;;;;;;;;5066557;28;20783;-80
2022/07/10 04:59:36;;;;;;;9.53;7.50;;;;;;;;;;5066291;28;20194;-79
2022/07/10 05:02:41;;;;;;;8.80;6.87;;;;;;;;;;5054273;28;20262;-79
2022/07/10 05:05:45;;;;;;;8.20;6.83;;;;;;;;;;5065576;28;20658;-79
2022/07/10 05:08:49;;;;;;;8.37;7.20;;;;;;;;;;5054380;28;20179;-80
2022/07/10 05:11:53;;;;;;;7.27;6.57;;;;;;;;;;5043358;28;20701;-79
2022/07/10 05:14:59;;;;;;;7.40;6.70;;;;;;;;;;5054625;28;20175;-79
2022/07/10 05:18:04;;;;;;;10.00;6.63;;;;;;;;;;5066235;28;20172;-79
2022/07/10 05:21:08;;;;;;;6.83;6.23;;;;;;;;;;5065508;28;20206;-79
2022/07/10 05:24:12;;;;;;;8.80;6.53;;;;;;;;;;5065411;28;20175;-79
2022/07/10 05:27:19;;;;;;;7.23;6.30;;;;;;;;;;5042899;28;20180;-80
2022/07/10 05:30:24;;;;;;;8.80;6.07;;;;;;;;;;5054011;28;20533;-79
2022/07/10 05:33:28;;;;;;;10.03;6.93;;;;;;;;;;5054534;28;20515;-80
2022/07/10 05:36:33;;;;;;;7.53;6.70;;;;;;;;;;5078247;28;20175;-80
2022/07/10 05:39:37;;;;;;;6.43;5.87;;;;;;;;;;5053834;28;20519;-80
2022/07/10 05:42:41;;;;;;;7.03;6.33;;;;;;;;;;5054208;28;20207;-79
2022/07/10 05:45:45;;;;;;;7.67;5.87;;;;;;;;;;5065945;28;20180;-79
2022/07/10 05:48:49;;;;;;;6.57;5.57;;;;;;;;;;5077628;28;20179;-80
2022/07/10 05:51:53;;;;;;;9.03;6.13;;;;;;;;;;5053964;28;20207;-79
2022/07/10 05:54:58;;;;;;;7.10;6.17;;;;;;;;;;5065379;28;20183;-79
2022/07/10 05:58:02;;;;;;;6.30;5.10;;;;;;;;;;5065626;28;20175;-79
2022/07/10 06:01:06;;;;;;;7.77;5.63;;;;;;;;;;5054074;28;20211;-79
2022/07/10 06:04:10;;;;;;;6.53;5.70;;;;;;;;;;5053881;28;20171;-80
2022/07/10 06:07:15;;;;;;;6.37;4.97;;;;;;;;;;5065140;28;20630;-79
2022/07/10 06:10:19;;;;;;;6.13;4.77;;;;;;;;;;5064988;28;20183;-79
2022/07/10 06:13:23;;;;;;;10.27;5.60;;;;;;;;;;5042540;28;20179;-79
2022/07/10 06:16:28;;;;;;;6.27;5.30;;;;;;;;;;5053817;28;20175;-79
2022/07/10 06:19:32;;;;;;;5.37;4.87;;;;;;;;;;5042195;28;20175;-78
2022/07/10 06:22:36;;;;;;;7.00;4.63;;;;;;;;;;5064634;28;20223;-79
2022/07/10 06:25:40;;;;;;;8.23;5.33;;;;;;;;;;5076590;28;20176;-79
2022/07/10 06:28:44;;;;;;;5.20;4.70;;;;;;;;;;5065413;28;20179;-79
2022/07/10 06:31:48;;;;;;;5.53;4.57;;;;;;;;;;5064579;28;20215;-79
2022/07/10 06:34:54;;;;;;;7.70;5.00;;;;;;;;;;5064040;28;20661;-78
2022/07/10 06:37:58;;;;;;;6.30;4.53;;;;;;;;;;5053724;28;20199;-79
2022/07/10 06:41:02;;;;;;;6.37;4.40;;;;;;;;;;5064834;28;20215;-78
2022/07/10 06:44:06;;;;;;;6.40;3.97;;;;;;;;;;5076812;28;20172;-79
2022/07/10 06:50:35;;;;;;;4.13;3.40;;;;;;;;;;5079047;28;20223;-78
2022/07/10 06:53:39;;;;;;;4.73;3.20;;;;;;;;;;5056731;28;20546;-78
2022/07/10 06:56:43;;;;;;;7.53;3.30;;;;;;;;;;5056790;28;20183;-79
2022/07/10 06:59:47;;;;;;;7.10;2.80;;;;;;;;;;5056611;28;20175;-79
2022/07/10 07:02:52;;;;;;;3.83;2.80;;;;;;;;;;5068218;28;20562;-79
2022/07/10 07:05:56;;;;;;;3.80;2.57;;;;;;;;;;5045290;28;20523;-78
2022/07/10 07:09:00;;;;;;;4.53;2.10;;;;;;;;;;5055907;28;20171;-78
2022/07/10 07:12:05;;;;;;;3.37;2.00;;;;;;;;;;5055967;28;20210;-78
2022/07/10 07:15:09;;;;;;;3.80;2.30;;;;;;;;;;5067561;28;20180;-79
2022/07/10 07:18:16;;;;;;;5.23;2.10;;;;;;;;;;5080326;28;20199;-79
2022/07/10 07:24:43;;;;;;;4.50;1.70;;;;;;;;;;5056138;28;20176;-79
2022/07/10 07:27:47;;;;;;;4.20;1.90;;;;;;;;;;5078713;28;20232;-79
2022/07/10 07:30:51;;;;;;;3.60;1.60;;;;;;;;;;5067475;28;20214;-79
2022/07/10 07:33:55;;;;;;;5.77;1.60;;;;;;;;;;5079854;28;20191;-79
2022/07/10 07:36:59;;;;;;;2.70;1.47;;;;;;;;;;5045614;28;20171;-79
2022/07/10 07:40:09;;;;;;;4.20;1.63;;;;;;;;;;5079781;28;20175;-79
2022/07/10 07:43:13;;;;;;;4.70;1.43;;;;;;;;;;5056243;28;20203;-79
2022/07/10 07:46:17;;;;;;;4.30;1.63;;;;;;;;;;5079242;28;20213;-79
2022/07/10 07:49:21;;;;;;;4.13;1.60;;;;;;;;;;5056864;28;20179;-80
2022/07/10 07:52:25;;;;;;;2.37;1.33;;;;;;;;;;5056784;28;20219;-79
2022/07/10 07:55:31;;;;;;;3.57;1.20;;;;;;;;;;5068058;28;20179;-79
2022/07/10 07:58:35;;;;;;;2.90;1.53;;;;;;;;;;5067955;28;20192;-79
2022/07/10 08:01:39;;;;;;;3.63;1.30;;;;;;;;;;5056097;28;20689;-79
2022/07/10 08:04:43;;;;;;;2.90;1.20;;;;;;;;;;5081188;28;20167;-79
2022/07/10 08:07:56;;;;;;;3.57;1.23;;;;;;;;;;5068170;28;20523;-79
2022/07/10 08:11:00;;;;;;;3.80;1.50;;;;;;;;;;5080531;28;20215;-80
2022/07/10 08:14:05;;;;;;;2.50;1.17;;;;;;;;;;5068404;28;20180;-79
2022/07/10 08:17:09;;;;;;;4.00;1.30;;;;;;;;;;5080538;28;20183;-80
2022/07/10 08:20:13;;;;;;;2.23;0.87;;;;;;;;;;5068151;28;20634;-80
2022/07/10 08:23:17;;;;;;;3.40;1.23;;;;;;;;;;5069399;28;20207;-80
2022/07/10 08:26:22;;;;;;;6.13;1.30;;;;;;;;;;5079768;28;20180;-79
2022/07/10 08:29:26;;;;;;;3.03;0.90;;;;;;;;;;5067794;28;20187;-80
2022/07/10 08:32:31;;;;;;;4.20;1.40;;;;;;;;;;5068640;28;20219;-79
2022/07/10 08:35:35;;;;;;;2.20;1.10;;;;;;;;;;5067720;28;20641;-80
2022/07/10 08:38:39;;;;;;;5.07;1.20;;;;;;;;;;5056130;28;20171;-80
2022/07/10 08:41:45;;;;;;;2.97;1.00;;;;;;;;;;5078492;28;20219;-79
2022/07/10 08:44:51;;;;;;;2.80;1.23;;;;;;;;;;5067833;28;20192;-80
2022/07/10 08:47:58;;;;;;;1.67;1.20;;;;;;;;;;5067033;28;20200;-80
2022/07/10 08:51:06;;;;;;;2.20;1.23;;;;;;;;;;5067820;28;20212;-80
2022/07/10 08:54:14;;;;;;;2.27;1.20;;;;;;;;;;5054604;28;20206;-79
2022/07/10 08:57:19;;;;;;;2.83;1.20;;;;;;;;;;5066604;28;20650;-79
2022/07/10 09:00:24;;;;;;;4.83;1.30;;;;;;;;;;5054855;28;20178;-79
2022/07/10 09:03:31;;;;;;;2.33;1.07;;;;;;;;;;5065912;28;20684;-79
2022/07/10 09:06:35;;;;;;;4.53;1.23;;;;;;;;;;5055355;28;20186;-79
2022/07/10 09:09:54;;;;;;;2.87;1.20;;;;;;;;;;5078805;28;20178;-80
2022/07/10 09:13:01;;;;;;;2.50;1.50;;;;;;;;;;5066372;28;20177;-80
2022/07/10 09:16:06;;;;;;;2.30;1.03;;;;;;;;;;5066216;28;20193;-79
2022/07/10 09:19:23;;;;;;;6.70;1.23;;;;;;;;;;5055363;28;20184;-79
2022/07/10 09:22:30;;;;;;;2.23;1.10;;;;;;;;;;5054697;28;20216;-79
2022/07/10 09:25:34;;;;;;;2.43;1.27;;;;;;;;;;5043285;28;20201;-79
2022/07/10 09:28:39;;;;;;;2.97;1.27;;;;;;;;;;5054546;28;20200;-79
2022/07/10 09:31:57;;;;;;;3.53;1.50;;;;;;;;;;5054112;28;20219;-79
2022/07/10 09:38:25;;;;;;;3.43;1.47;;;;;;;;;;5054129;28;20174;-79
2022/07/10 09:41:31;;;;;;;2.43;1.20;;;;;;;;;;5053898;28;20221;-79
2022/07/10 09:44:35;;;;;;;2.83;1.00;;;;;;;;;;5077500;28;20205;-80
2022/07/10 09:47:40;;;;;;;2.37;1.27;;;;;;;;;;5065285;28;20189;-79
2022/07/10 09:50:44;;;;;;;2.43;0.90;;;;;;;;;;5065168;28;20549;-79
2022/07/10 09:53:48;;;;;;;3.30;0.73;;;;;;;;;;5064810;28;20208;-80
2022/07/10 09:56:55;;;;;;;2.00;1.20;;;;;;;;;;5041491;28;20201;-79
2022/07/10 10:00:00;;;;;;;4.67;1.10;;;;;;;;;;5077175;28;20526;-80
2022/07/10 10:03:07;;;;;;;1.90;0.90;;;;;;;;;;5065031;28;20221;-79
2022/07/10 10:06:15;;;;;;;3.30;1.10;;;;;;;;;;5053439;28;20176;-79
2022/07/10 10:09:30;;;;;;;2.80;0.90;;;;;;;;;;5065504;28;20175;-79
2022/07/10 10:12:41;;;;;;;1.80;1.10;;;;;;;;;;5064783;28;20557;-79
2022/07/10 10:15:47;;;;;;;5.17;1.20;;;;;;;;;;5053575;28;20176;-79
2022/07/10 10:22:18;;;;;;;2.50;0.80;;;;;;;;;;5053462;28;20222;-80
2022/07/10 10:25:26;;;;;;;1.33;0.70;;;;;;;;;;5068717;28;20178;-79
2022/07/10 10:28:33;;;;;;;2.47;1.00;;;;;;;;;;5070199;28;20179;-80
2022/07/10 10:31:38;;;;;;;1.75;0.88;;;;;;;;;;5057832;28;20214;-80
2022/07/10 10:34:43;;;;;;;3.17;1.00;;;;;;;;;;5046572;28;20174;-80
2022/07/10 10:37:50;;;;;;;4.90;1.00;;;;;;;;;;5047420;28;20183;-80
2022/07/10 10:41:33;;;;;;;1.70;0.73;;;;;;;;;;5046489;28;20215;-80
2022/07/10 10:44:37;;;;;;;3.13;0.88;;;;;;;;;;5069192;28;20209;-80
2022/07/10 10:47:58;;;;;;;1.55;0.60;;;;;;;;;;5057698;28;20646;-80
2022/07/10 10:51:02;;;;;;;2.20;0.80;;;;;;;;;;5057879;28;20226;-80
2022/07/10 10:54:06;;;;;;;3.67;0.75;;;;;;;;;;5069530;28;20192;-80
2022/07/10 10:57:16;;;;;;;6.63;1.00;;;;;;;;;;5081371;28;20178;-80
2022/07/10 11:00:35;;;;;;;1.77;0.75;;;;;;;;;;5081403;28;20180;-80
2022/07/10 11:03:39;;;;;;;2.83;0.80;;;;;;;;;;5057530;28;20213;-80
2022/07/10 11:06:51;;;;;;;1.90;0.68;;;;;;;;;;5056922;28;20569;-80
2022/07/10 11:10:33;;;;;;;3.30;0.88;;;;;;;;;;5080712;28;20183;-79
2022/07/10 11:13:39;;;;;;;2.58;0.80;;;;;;;;;;5080904;28;20627;-80
2022/07/10 11:16:46;;;;;;;2.03;0.73;;;;;;;;;;5080406;28;20177;-80
2022/07/10 11:19:52;;;;;;;3.05;0.73;;;;;;;;;;5057164;28;20178;-79
2022/07/10 11:23:00;;;;;;;2.70;0.80;;;;;;;;;;5056562;28;20182;-79
2022/07/10 11:26:11;;;;;;;2.97;0.90;;;;;;;;;;5056700;28;20175;-80
2022/07/10 11:29:17;;;;;;;1.93;0.70;;;;;;;;;;5056858;28;20634;-80
2022/07/10 11:32:22;;;;;;;3.03;1.07;;;;;;;;;;5056340;28;20223;-80
2022/07/10 11:35:27;;;;;;;3.00;0.73;;;;;;;;;;5067807;28;20182;-80
2022/07/10 11:38:31;;;;;;;4.60;0.80;;;;;;;;;;5056449;28;20200;-80
2022/07/10 11:41:45;;;;;;;1.42;0.57;;;;;;;;;;5079578;28;20219;-80
2022/07/10 11:44:49;;;;;;;1.63;0.80;;;;;;;;;;5045219;28;20685;-81
2022/07/10 11:47:54;;;;;;;2.75;0.80;;;;;;;;;;5056677;28;20179;-80
2022/07/10 11:50:59;;;;;;;1.92;0.63;;;;;;;;;;5055814;28;20212;-80
2022/07/10 11:54:05;;;;;;;2.05;0.55;;;;;;;;;;5056235;28;20198;-80
2022/07/10 11:57:10;;;;;;;2.78;0.85;;;;;;;;;;5068020;28;20182;-80
2022/07/10 12:00:25;;;;;;;3.40;0.75;;;;;;;;;;5056451;28;20186;-80
2022/07/10 12:03:29;;;;;;;1.43;0.80;;;;;;;;;;5057160;28;20214;-79
2022/07/10 12:06:35;;;;;;;3.58;0.82;;;;;;;;;;5056078;28;20617;-80
2022/07/10 12:09:39;;;;;;;1.27;0.60;;;;;;;;;;5079866;28;20516;-80
2022/07/10 12:12:43;;;;;;;2.60;0.90;;;;;;;;;;5055719;28;20185;-80
2022/07/10 12:15:47;;;;;;;1.70;0.70;;;;;;;;;;5068275;28;20180;-80
2022/07/10 12:18:52;;;;;;;4.17;0.90;;;;;;;;;;5055887;28;20182;-80
2022/07/10 12:21:58;;;;;;;5.13;0.80;;;;;;;;;;5079815;28;20216;-82
2022/07/10 12:25:05;;;;;;;0.87;0.53;;;;;;;;;;5055542;28;20573;-81
2022/07/10 12:28:09;;;;;;;6.50;0.90;;;;;;;;;;5044483;28;20672;-82
2022/07/10 12:31:20;;;;;;;4.13;0.70;;;;;;;;;;5059469;28;20212;-81
2022/07/10 12:34:42;;;;;;;2.30;0.70;;;;;;;;;;5057276;28;20517;-81
2022/07/10 12:37:49;;;;;;;2.20;0.77;;;;;;;;;;5056523;28;20186;-81
2022/07/10 12:41:26;;;;;;;2.90;0.70;;;;;;;;;;5055661;28;20216;-81
2022/07/10 12:44:38;;;;;;;2.20;0.60;;;;;;;;;;5050099;28;20228;-82
2022/07/10 12:47:45;;;;;;;4.03;0.77;;;;;;;;;;5055171;28;20525;-81
2022/07/10 12:50:48;;;;;;;1.67;0.80;;;;;;;;;;5067561;28;20215;-81
2022/07/10 12:53:53;;;;;;;1.73;0.80;;;;;;;;;;5080333;23;20238;-78
2022/07/10 12:56:58;;;;;;;2.33;0.60;;;;;;;;;;5062416;28;20179;-77
2022/07/10 13:00:05;;;;;;;0.60;0.50;;;;;;;;;;5062260;28;20186;-77
2022/07/10 13:03:18;;;;;;;2.13;0.90;;;;;;;;;;5043484;28;20506;-77
2022/07/10 13:06:32;;;;;;;2.53;0.87;;;;;;;;;;5055079;28;20171;-77
2022/07/10 13:09:39;;;;;;;1.87;0.90;;;;;;;;;;5055427;28;20189;-76
2022/07/10 13:12:43;;;;;;;0.97;0.60;;;;;;;;;;5043290;28;20179;-77
2022/07/10 13:15:59;;;;;;;1.70;0.97;;;;;;;;;;5041743;28;20186;-77
2022/07/10 13:19:11;;;;;;;5.57;1.10;;;;;;;;;;5042868;28;20198;-77
2022/07/10 13:22:16;;;;;;;1.83;0.57;;;;;;;;;;5053938;28;20219;-77
2022/07/10 13:25:20;;;;;;;3.23;0.80;;;;;;;;;;5043043;28;20232;-77
2022/07/10 13:28:24;;;;;;;3.70;0.80;;;;;;;;;;5054973;28;20195;-77
2022/07/10 13:31:28;;;;;;;2.63;0.80;;;;;;;;;;5043452;28;20209;-77
2022/07/10 13:34:32;;;;;;;2.30;0.73;;;;;;;;;;5042079;28;20199;-77
2022/07/10 13:37:36;;;;;;;3.93;0.80;;;;;;;;;;5041820;28;20191;-77
2022/07/10 13:40:40;;;;;;;1.77;0.73;;;;;;;;;;5047986;28;20221;-76
2022/07/10 13:43:44;;;;;;;2.30;0.83;;;;;;;;;;5053156;28;20198;-77
2022/07/10 13:46:48;;;;;;;1.47;0.57;;;;;;;;;;5054298;28;20184;-77
2022/07/10 13:49:52;;;;;;;3.77;0.83;;;;;;;;;;5053105;28;20193;-76
2022/07/10 13:52:57;;;;;;;1.47;0.70;;;;;;;;;;5044205;28;20183;-77
2022/07/10 13:56:04;;;;;;;1.77;0.50;;;;;;;;;;5024961;28;20175;-78
2022/07/10 13:59:08;;;;;;;2.17;0.70;;;;;;;;;;5039601;28;20638;-77
2022/07/10 14:02:12;;;;;;;0.87;0.50;;;;;;;;;;5054352;28;20213;-78
2022/07/10 14:05:16;;;;;;;1.40;0.70;;;;;;;;;;5044216;28;20229;-78
2022/07/10 14:08:21;;;;;;;2.93;0.70;;;;;;;;;;5031436;28;20199;-77
2022/07/10 14:11:26;;;;;;;1.53;0.63;;;;;;;;;;5031695;28;20229;-77
2022/07/10 14:14:30;;;;;;;2.53;0.60;;;;;;;;;;5033029;28;20538;-77
2022/07/10 14:17:34;;;;;;;1.17;0.60;;;;;;;;;;5036250;28;20177;-77
2022/07/10 14:21:24;;;;;;;1.13;0.45;;;;;;;;;;5023610;28;20223;-77
2022/07/10 14:24:06;;;;;;;1.35;0.55;;;;;;;;;;5034308;28;20203;-78
2022/07/10 14:27:10;;;;;;;1.77;0.73;;;;;;;;;;5050914;28;20208;-76
2022/07/10 14:30:14;;;;;;;1.90;0.60;;;;;;;;;;5045236;28;20650;-78
2022/07/10 14:33:19;;;;;;;1.50;0.55;;;;;;;;;;5056892;28;20180;-76
2022/07/10 14:36:26;;;;;;;2.92;0.60;;;;;;;;;;5012095;28;20175;-77
2022/07/10 14:39:30;;;;;;;2.42;0.55;;;;;;;;;;5036770;28;20182;-77
2022/07/10 14:42:34;;;;;;;2.00;0.60;;;;;;;;;;5049774;28;20215;-78
2022/07/10 14:45:38;;;;;;;2.08;0.65;;;;;;;;;;5048371;28;20213;-77
2022/07/10 14:48:42;;;;;;;1.92;0.52;;;;;;;;;;5053865;28;20183;-77
2022/07/10 14:51:47;;;;;;;3.20;0.70;;;;;;;;;;5055630;28;20225;-78
2022/07/10 14:54:51;;;;;;;2.25;0.50;;;;;;;;;;5056320;28;20215;-79
2022/07/10 14:57:55;;;;;;;3.63;0.85;;;;;;;;;;5044393;28;20183;-77
2022/07/10 15:01:00;;;;;;;1.80;0.57;;;;;;;;;;5053863;28;20594;-77
2022/07/10 15:04:04;;;;;;;4.10;0.80;;;;;;;;;;5052046;28;20249;-77
2022/07/10 15:07:08;;;;;;;1.67;0.80;;;;;;;;;;5040453;28;20183;-76
2022/07/10 15:10:12;;;;;;;1.52;0.60;;;;;;;;;;5053084;28;20197;-77
2022/07/10 15:13:17;;;;;;;1.47;0.57;;;;;;;;;;5044526;28;20186;-77
2022/07/10 15:16:21;;;;;;;2.13;0.67;;;;;;;;;;5056094;28;20188;-77
2022/07/10 15:19:25;;;;;;;3.03;0.80;;;;;;;;;;5055799;28;20203;-77
2022/07/10 15:22:31;;;;;;;0.90;0.50;;;;;;;;;;5043749;28;20223;-77
2022/07/10 15:25:37;;;;;;;1.50;0.50;;;;;;;;;;5056107;28;20216;-77
2022/07/10 15:28:41;;;;;;;0.70;0.43;;;;;;;;;;5024128;28;20642;-77
2022/07/10 15:31:45;;;;;;;2.42;0.65;;;;;;;;;;5054833;28;20225;-76
2022/07/10 15:34:50;;;;;;;1.43;0.47;;;;;;;;;;5055666;28;20178;-77
2022/07/10 15:37:54;;;;;;;0.97;0.47;;;;;;;;;;5044064;28;20187;-77
2022/07/10 15:40:58;;;;;;;4.20;0.90;;;;;;;;;;5055798;28;20207;-77
2022/07/10 15:44:03;;;;;;;2.93;0.67;;;;;;;;;;5055621;28;20199;-77
2022/07/10 15:47:07;;;;;;;2.33;0.40;;;;;;;;;;5055021;28;20184;-76
2022/07/10 15:50:11;;;;;;;1.53;0.67;;;;;;;;;;5034866;28;20191;-77
2022/07/10 15:53:15;;;;;;;2.10;0.50;;;;;;;;;;5054660;28;20202;-77
2022/07/10 15:56:19;;;;;;;1.17;0.40;;;;;;;;;;5023542;28;20179;-77
2022/07/10 15:59:23;;;;;;;2.57;0.60;;;;;;;;;;5023589;28;20202;-77
2022/07/10 16:02:28;;;;;;;1.67;0.80;;;;;;;;;;5034880;28;20217;-77
2022/07/10 16:05:32;;;;;;;3.97;0.70;;;;;;;;;;5035268;28;20224;-77
2022/07/10 16:08:36;;;;;;;1.83;0.67;;;;;;;;;;5035683;28;20197;-77
2022/07/10 16:11:43;;;;;;;4.57;0.70;;;;;;;;;;5034783;28;20216;-77
2022/07/10 16:14:48;;;;;;;2.37;0.60;;;;;;;;;;5036525;28;20181;-77
2022/07/10 16:17:52;;;;;;;1.73;0.83;;;;;;;;;;5036283;28;20172;-77
2022/07/10 16:20:57;;;;;;;1.50;0.60;;;;;;;;;;5024075;28;20220;-77
2022/07/10 16:24:02;;;;;;;2.03;0.57;;;;;;;;;;5034822;28;20177;-77
2022/07/10 16:27:07;;;;;;;3.23;0.70;;;;;;;;;;5023610;28;20173;-77
2022/07/10 16:30:11;;;;;;;1.50;0.70;;;;;;;;;;5024215;28;20173;-77
2022/07/10 16:33:15;;;;;;;0.90;0.53;;;;;;;;;;5035028;28;20177;-77
2022/07/10 16:36:20;;;;;;;2.60;0.50;;;;;;;;;;5023669;28;20169;-77
2022/07/10 16:39:24;;;;;;;0.80;0.40;;;;;;;;;;5023518;28;20185;-77
2022/07/10 16:42:29;;;;;;;2.60;0.67;;;;;;;;;;5022924;28;20217;-77
2022/07/10 16:45:33;;;;;;;1.33;0.40;;;;;;;;;;5035548;28;20208;-77
2022/07/10 16:48:37;;;;;;;3.60;0.90;;;;;;;;;;5034499;28;20181;-77
2022/07/10 16:51:43;;;;;;;2.97;0.47;;;;;;;;;;5023019;28;20216;-77
2022/07/10 16:54:47;;;;;;;1.80;0.67;;;;;;;;;;5034232;28;20212;-77
2022/07/10 16:57:51;;;;;;;2.47;0.60;;;;;;;;;;5034899;28;20181;-77
2022/07/10 17:00:56;;;;;;;3.47;0.63;;;;;;;;;;5022671;28;20560;-77
2022/07/10 17:04:00;;;;;;;1.47;0.57;;;;;;;;;;5034431;28;20181;-77
2022/07/10 17:07:06;;;;;;;2.30;0.40;;;;;;;;;;5023660;28;20173;-77
2022/07/10 17:10:11;;;;;;;0.67;0.40;;;;;;;;;;5036108;28;20497;-77
2022/07/10 17:13:16;;;;;;;1.47;0.50;;;;;;;;;;5025535;28;20497;-77
2022/07/10 17:16:20;;;;;;;0.57;0.30;;;;;;;;;;5024569;28;20172;-77
2022/07/10 17:19:26;;;;;;;2.67;0.70;;;;;;;;;;5036139;28;20176;-77
2022/07/10 17:22:30;;;;;;;3.23;0.80;;;;;;;;;;5024922;28;20220;-76
2022/07/10 17:25:34;;;;;;;0.67;0.40;;;;;;;;;;5035739;28;20212;-77
2022/07/10 17:28:38;;;;;;;1.13;0.47;;;;;;;;;;5023441;28;20189;-77
2022/07/10 17:31:42;;;;;;;1.13;0.43;;;;;;;;;;5033885;28;20212;-77
2022/07/10 17:34:46;;;;;;;3.77;0.67;;;;;;;;;;5022118;28;20184;-77
2022/07/10 17:37:50;;;;;;;1.10;0.40;;;;;;;;;;5024184;28;20184;-78
2022/07/10 17:40:54;;;;;;;1.57;0.57;;;;;;;;;;5022068;28;20216;-77
2022/07/10 17:43:58;;;;;;;1.10;0.60;;;;;;;;;;5022377;28;20177;-77
2022/07/10 17:47:03;;;;;;;1.17;0.50;;;;;;;;;;5021888;28;20200;-77
2022/07/10 17:50:08;;;;;;;2.70;0.40;;;;;;;;;;5021589;28;20173;-77
2022/07/10 17:53:12;;;;;;;1.10;0.60;;;;;;;;;;5032517;28;20200;-77
2022/07/10 17:56:16;;;;;;;3.03;0.50;;;;;;;;;;5032890;28;20513;-77
2022/07/10 17:59:21;;;;;;;1.07;0.40;;;;;;;;;;5021597;28;20181;-77
2022/07/10 18:02:25;;;;;;;1.53;0.47;;;;;;;;;;5021459;28;20216;-77
2022/07/10 18:05:29;;;;;;;1.57;0.60;;;;;;;;;;5021651;28;20204;-77
2022/07/10 18:08:33;;;;;;;1.53;0.60;;;;;;;;;;5033339;28;20632;-77
2022/07/10 18:11:37;;;;;;;2.27;0.50;;;;;;;;;;5021404;28;20212;-77
2022/07/10 18:14:41;;;;;;;1.10;0.57;;;;;;;;;;5033563;28;20184;-77
2022/07/10 18:17:48;;;;;;;0.93;0.50;;;;;;;;;;5032714;28;20172;-77
2022/07/10 18:20:52;;;;;;;1.73;0.40;;;;;;;;;;5021159;28;20213;-76
2022/07/10 18:23:59;;;;;;;1.77;0.57;;;;;;;;;;5021500;28;20177;-77
2022/07/10 18:27:04;;;;;;;4.47;0.60;;;;;;;;;;5033087;28;20204;-77
2022/07/10 18:30:08;;;;;;;2.00;0.60;;;;;;;;;;5032428;28;20185;-77
2022/07/10 18:36:35;;;;;;;0.40;0.30;;;;;;;;;;5021236;28;20177;-77
2022/07/10 18:39:39;;;;;;;0.90;0.70;;;;;;;;;;5032521;28;20204;-77
2022/07/10 18:42:43;;;;;;;1.40;0.50;;;;;;;;;;5033392;28;20185;-77
2022/07/10 18:45:47;;;;;;;2.67;0.63;;;;;;;;;;5023607;28;20544;-77
2022/07/10 18:48:51;;;;;;;1.50;0.50;;;;;;;;;;5035949;28;20197;-77
2022/07/10 18:51:55;;;;;;;3.13;0.80;;;;;;;;;;5036742;28;20216;-77